createdAt,value
2024-04-19T00:04:24.705Z,0
2024-04-19T00:10:44.780Z,0
2024-04-19T00:17:06.741Z,0
2024-04-19T00:23:26.785Z,0
2024-04-19T00:29:48.706Z,0
2024-04-19T00:36:08.793Z,0
2024-04-19T00:42:30.730Z,0
2024-04-19T00:48:50.790Z,0
2024-04-19T00:55:12.739Z,0
2024-04-19T01:01:32.767Z,0
2024-04-19T01:07:54.712Z,0
2024-04-19T01:14:14.736Z,0
2024-04-19T01:20:36.703Z,0
2024-04-19T01:26:56.540Z,0
2024-04-19T01:33:18.486Z,0
2024-04-19T01:39:38.520Z,0
2024-04-19T01:46:00.443Z,0
2024-04-19T01:52:20.467Z,0
2024-04-19T01:58:42.481Z,0
2024-04-19T02:05:02.513Z,0
2024-04-19T02:11:24.450Z,0
2024-04-19T02:17:44.539Z,0
2024-04-19T02:24:06.420Z,0
2024-04-19T02:30:26.591Z,0
2024-04-19T02:36:48.435Z,0
2024-04-19T02:43:08.493Z,0
2024-04-19T02:49:30.467Z,0
2024-04-19T02:55:50.470Z,0
2024-04-19T03:02:12.470Z,0
2024-04-19T03:26:54.318Z,0
2024-04-19T03:33:13.587Z,0
2024-04-19T03:39:35.544Z,0
2024-04-19T03:45:55.472Z,0
2024-04-19T03:52:17.511Z,0
2024-04-19T03:58:37.480Z,0
2024-04-19T04:04:59.488Z,0
2024-04-19T04:11:19.468Z,0
2024-04-19T04:17:41.421Z,0
2024-04-19T04:24:01.436Z,0
2024-04-19T04:30:23.379Z,0
2024-04-19T04:36:43.433Z,0
2024-04-19T04:43:05.519Z,0
2024-04-19T04:49:25.393Z,0
2024-04-19T04:55:47.550Z,0
2024-04-19T05:02:07.490Z,0
2024-04-19T05:08:29.477Z,0
2024-04-19T05:14:49.422Z,0
2024-04-19T05:21:11.400Z,0
2024-04-19T05:27:31.571Z,0
2024-04-19T05:33:53.525Z,0
2024-04-19T05:40:13.446Z,0
2024-04-19T05:46:35.415Z,0
2024-04-19T05:52:55.380Z,0
2024-04-19T05:59:17.506Z,0
2024-04-19T06:05:37.532Z,5.62
2024-04-19T06:11:59.488Z,5.62
2024-04-19T06:18:19.648Z,11.25
2024-04-19T06:24:41.574Z,11.25
2024-04-19T06:31:01.476Z,11.25
2024-04-19T06:37:23.543Z,5.62
2024-04-19T06:43:43.510Z,11.25
2024-04-19T06:50:05.568Z,5.62
2024-04-19T06:56:25.402Z,11.25
2024-04-19T07:02:47.451Z,11.25
2024-04-19T07:09:07.403Z,11.25
2024-04-19T07:15:29.477Z,11.25
2024-04-19T07:21:49.500Z,11.25
2024-04-19T07:28:11.489Z,16.88
2024-04-19T07:34:31.528Z,11.25
2024-04-19T07:40:53.443Z,11.25
2024-04-19T07:47:13.482Z,16.88
2024-04-19T07:53:35.484Z,22.5
2024-04-19T07:59:55.390Z,22.5
2024-04-19T08:06:17.478Z,16.88
2024-04-19T08:12:37.650Z,22.5
2024-04-19T08:18:59.455Z,22.5
2024-04-19T08:34:47.442Z,16.88
2024-04-19T08:41:06.404Z,22.5
2024-04-19T08:47:28.426Z,16.88
2024-04-19T08:53:48.520Z,22.5
2024-04-19T09:00:12.869Z,33.75
2024-04-19T09:06:30.570Z,16.88
2024-04-19T09:12:52.467Z,16.88
2024-04-19T09:19:12.390Z,22.5
2024-04-19T09:25:34.461Z,22.5
2024-04-19T09:31:54.457Z,28.12
2024-04-19T09:38:16.569Z,33.75
2024-04-19T09:44:36.415Z,45
2024-04-19T09:50:58.428Z,28.12
2024-04-19T09:57:18.494Z,33.75
2024-04-19T10:03:40.573Z,28.12
2024-04-19T10:10:00.684Z,39.38
2024-04-19T10:16:22.554Z,45
2024-04-19T10:22:42.623Z,56.25
2024-04-19T10:29:04.492Z,56.25
2024-04-19T10:35:24.412Z,135
2024-04-19T10:41:46.419Z,61.88
2024-04-19T10:48:06.513Z,33.75
2024-04-19T10:54:28.455Z,22.5
2024-04-19T11:00:48.492Z,28.12
2024-04-19T11:07:10.566Z,33.75
2024-04-19T11:13:30.485Z,39.38
2024-04-19T11:19:52.407Z,39.38
2024-04-19T11:26:12.463Z,28.12
2024-04-19T11:32:34.455Z,39.38
2024-04-19T11:38:54.636Z,16.88
2024-04-19T11:45:16.476Z,22.5
2024-04-19T11:51:36.434Z,22.5
2024-04-19T11:57:58.478Z,11.25
2024-04-19T12:04:18.507Z,11.25
2024-04-19T12:10:40.393Z,16.88
2024-04-19T12:17:05.710Z,22.5
2024-04-19T12:23:23.556Z,16.88
2024-04-19T12:29:42.537Z,22.5
2024-04-19T12:36:04.427Z,22.5
2024-04-19T12:42:24.547Z,45
2024-04-19T12:48:46.566Z,78.75
2024-04-19T12:55:06.409Z,39.38
2024-04-19T13:01:28.515Z,84.38
2024-04-19T13:07:48.434Z,56.25
2024-04-19T13:24:40.005Z,56.25
2024-04-19T13:30:59.458Z,106.88
2024-04-19T13:37:21.439Z,140.62
2024-04-19T13:43:41.442Z,28.12
2024-04-19T13:50:03.494Z,5.62
2024-04-19T13:56:23.392Z,11.25
2024-04-19T14:02:45.557Z,16.88
2024-04-19T14:09:05.633Z,16.88
2024-04-19T14:15:27.595Z,16.88
2024-04-19T14:21:47.654Z,16.88
2024-04-19T14:28:09.675Z,61.88
2024-04-19T14:34:29.509Z,253.12
2024-04-19T14:40:51.446Z,95.62
2024-04-19T14:47:11.451Z,67.5
2024-04-19T14:53:33.428Z,33.75
2024-04-19T14:59:53.499Z,11.25
2024-04-19T15:06:15.398Z,50.62
2024-04-19T15:12:35.616Z,11.25
2024-04-19T15:18:57.548Z,11.25
2024-04-19T15:25:17.694Z,45
2024-04-19T15:31:39.459Z,185.62
2024-04-19T15:37:59.489Z,84.38
2024-04-19T15:44:21.532Z,61.88
2024-04-19T15:50:41.404Z,56.25
2024-04-19T15:57:03.478Z,230.62
2024-04-19T16:03:23.580Z,157.5
2024-04-19T16:09:45.748Z,185.62
2024-04-19T16:16:05.633Z,73.12
2024-04-19T16:22:27.386Z,84.38
2024-04-19T16:28:47.408Z,33.75
2024-04-19T16:35:09.465Z,16.88
2024-04-19T16:41:29.555Z,168.75
2024-04-19T16:47:51.668Z,146.25
2024-04-19T16:54:11.420Z,135
2024-04-19T17:00:33.426Z,146.25
2024-04-19T17:06:54.907Z,50.62
2024-04-19T17:13:15.455Z,106.88
2024-04-19T17:19:35.399Z,106.88
2024-04-19T17:25:57.443Z,39.38
2024-04-19T17:32:17.510Z,22.5
2024-04-19T17:38:39.438Z,22.5
2024-04-19T18:01:43.022Z,11.25
2024-04-19T18:08:02.385Z,11.25
2024-04-19T18:14:24.414Z,5.62
2024-04-19T18:20:44.402Z,0
2024-04-19T18:27:06.424Z,0
2024-04-19T18:33:26.377Z,0
2024-04-19T18:39:47.580Z,0
2024-04-19T18:46:07.482Z,0
2024-04-19T18:52:29.523Z,0
2024-04-19T18:58:49.432Z,0
2024-04-19T19:05:11.430Z,0
2024-04-19T19:11:31.457Z,0
2024-04-19T19:17:53.461Z,0
2024-04-19T19:24:13.468Z,0
2024-04-19T19:30:35.485Z,0
2024-04-19T19:36:55.428Z,0
2024-04-19T19:43:19.034Z,0
2024-04-19T19:49:37.774Z,0
2024-04-19T19:55:59.507Z,0
2024-04-19T20:02:20.452Z,0
2024-04-19T20:08:42.602Z,0
2024-04-19T20:15:02.457Z,0
2024-04-19T20:21:24.513Z,0
2024-04-19T20:27:44.602Z,0
2024-04-19T20:34:06.544Z,0
2024-04-19T20:40:26.446Z,0
2024-04-19T20:46:48.480Z,0
2024-04-19T20:53:08.468Z,0
2024-04-19T20:59:30.520Z,0
2024-04-19T21:05:50.389Z,0
2024-04-19T21:12:12.411Z,0
2024-04-19T21:18:32.558Z,0
2024-04-19T21:24:54.416Z,0
2024-04-19T21:31:14.515Z,0
2024-04-19T21:37:36.423Z,0
2024-04-19T21:43:56.427Z,0
2024-04-19T21:50:18.420Z,0
2024-04-19T21:56:38.465Z,0
2024-04-19T22:20:54.420Z,0
2024-04-19T22:27:14.393Z,0
2024-04-19T22:33:36.473Z,0
2024-04-19T22:39:56.469Z,0
2024-04-19T22:46:18.423Z,0
2024-04-19T22:52:38.492Z,0
2024-04-19T22:59:00.412Z,0
2024-04-19T23:05:20.438Z,0
2024-04-19T23:11:42.433Z,0
2024-04-19T23:18:02.713Z,0
2024-04-19T23:24:24.410Z,0
2024-04-19T23:30:44.419Z,0
2024-04-19T23:37:06.558Z,0
2024-04-19T23:43:26.528Z,0
2024-04-19T23:49:48.397Z,0
2024-04-19T23:56:08.496Z,0
